sensor_id;sensor_type;location;lat;lon;timestamp;temperature;humidity
12853;DHT22;6495;51.808;7.478;2023-03-23T00:00:19;11.80;99.90
12853;DHT22;6495;51.808;7.478;2023-03-23T00:03:11;11.70;99.90
12853;DHT22;6495;51.808;7.478;2023-03-23T00:06:05;11.70;99.90
12853;DHT22;6495;51.808;7.478;2023-03-23T00:09:02;11.70;99.90
12853;DHT22;6495;51.808;7.478;2023-03-23T00:11:51;11.70;99.90
12853;DHT22;6495;51.808;7.478;2023-03-23T00:14:58;11.70;99.90
12853;DHT22;6495;51.808;7.478;2023-03-23T00:17:46;11.70;99.90
12853;DHT22;6495;51.808;7.478;2023-03-23T00:20:35;11.70;99.90
12853;DHT22;6495;51.808;7.478;2023-03-23T00:23:52;11.70;99.90
12853;DHT22;6495;51.808;7.478;2023-03-23T00:26:43;11.60;99.90
12853;DHT22;6495;51.808;7.478;2023-03-23T00:29:32;11.60;99.90
12853;DHT22;6495;51.808;7.478;2023-03-23T00:32:22;11.60;99.90
12853;DHT22;6495;51.808;7.478;2023-03-23T00:35:13;11.60;99.90
12853;DHT22;6495;51.808;7.478;2023-03-23T00:38:05;11.60;99.90
12853;DHT22;6495;51.808;7.478;2023-03-23T00:40:54;11.60;99.90
12853;DHT22;6495;51.808;7.478;2023-03-23T00:43:54;11.60;99.90
12853;DHT22;6495;51.808;7.478;2023-03-23T00:46:47;11.60;99.90
12853;DHT22;6495;51.808;7.478;2023-03-23T00:49:44;11.60;99.90
12853;DHT22;6495;51.808;7.478;2023-03-23T00:52:38;11.60;99.90
12853;DHT22;6495;51.808;7.478;2023-03-23T00:55:29;11.60;99.90
12853;DHT22;6495;51.808;7.478;2023-03-23T00:58:38;11.60;99.90
12853;DHT22;6495;51.808;7.478;2023-03-23T01:01:28;11.60;99.90
12853;DHT22;6495;51.808;7.478;2023-03-23T01:04:20;11.60;99.90
12853;DHT22;6495;51.808;7.478;2023-03-23T01:07:08;11.60;99.90
12853;DHT22;6495;51.808;7.478;2023-03-23T01:09:59;11.60;99.90
12853;DHT22;6495;51.808;7.478;2023-03-23T01:12:47;11.60;99.90
12853;DHT22;6495;51.808;7.478;2023-03-23T01:15:38;11.60;99.90
12853;DHT22;6495;51.808;7.478;2023-03-23T01:18:28;11.60;99.90
12853;DHT22;6495;51.808;7.478;2023-03-23T01:21:20;11.60;99.90
12853;DHT22;6495;51.808;7.478;2023-03-23T01:24:11;11.60;99.90
12853;DHT22;6495;51.808;7.478;2023-03-23T01:26:59;11.60;99.90
12853;DHT22;6495;51.808;7.478;2023-03-23T01:29:55;11.60;99.90
12853;DHT22;6495;51.808;7.478;2023-03-23T01:32:46;11.70;99.90
12853;DHT22;6495;51.808;7.478;2023-03-23T01:35:39;11.60;99.90
12853;DHT22;6495;51.808;7.478;2023-03-23T01:38:27;11.60;99.90
12853;DHT22;6495;51.808;7.478;2023-03-23T01:41:15;11.60;99.90
12853;DHT22;6495;51.808;7.478;2023-03-23T01:44:07;11.70;99.90
12853;DHT22;6495;51.808;7.478;2023-03-23T01:47:25;11.60;99.90
12853;DHT22;6495;51.808;7.478;2023-03-23T01:50:14;11.60;99.90
12853;DHT22;6495;51.808;7.478;2023-03-23T01:53:05;11.60;99.90
12853;DHT22;6495;51.808;7.478;2023-03-23T01:55:59;11.60;99.90
12853;DHT22;6495;51.808;7.478;2023-03-23T01:58:48;11.60;99.90
12853;DHT22;6495;51.808;7.478;2023-03-23T02:01:42;11.60;99.90
12853;DHT22;6495;51.808;7.478;2023-03-23T02:04:32;11.60;99.90
12853;DHT22;6495;51.808;7.478;2023-03-23T02:07:22;11.70;99.90
12853;DHT22;6495;51.808;7.478;2023-03-23T02:10:14;11.70;99.90
12853;DHT22;6495;51.808;7.478;2023-03-23T02:13:09;11.70;99.90
12853;DHT22;6495;51.808;7.478;2023-03-23T02:16:06;11.70;99.90
12853;DHT22;6495;51.808;7.478;2023-03-23T02:19:24;11.70;99.90
12853;DHT22;6495;51.808;7.478;2023-03-23T02:22:43;11.70;99.90
12853;DHT22;6495;51.808;7.478;2023-03-23T02:25:57;11.70;99.90
12853;DHT22;6495;51.808;7.478;2023-03-23T02:29:15;11.80;99.90
12853;DHT22;6495;51.808;7.478;2023-03-23T02:32:40;11.80;99.90
12853;DHT22;6495;51.808;7.478;2023-03-23T02:35:48;11.80;99.90
12853;DHT22;6495;51.808;7.478;2023-03-23T02:38:44;11.80;99.90
12853;DHT22;6495;51.808;7.478;2023-03-23T02:41:43;11.80;99.90
12853;DHT22;6495;51.808;7.478;2023-03-23T02:49:34;11.80;99.90
12853;DHT22;6495;51.808;7.478;2023-03-23T02:52:34;11.80;99.90
12853;DHT22;6495;51.808;7.478;2023-03-23T02:55:32;11.80;99.90
12853;DHT22;6495;51.808;7.478;2023-03-23T02:58:24;11.80;99.90
12853;DHT22;6495;51.808;7.478;2023-03-23T03:04:58;11.80;99.90
12853;DHT22;6495;51.808;7.478;2023-03-23T03:08:01;11.80;99.90
12853;DHT22;6495;51.808;7.478;2023-03-23T03:11:25;11.80;99.90
12853;DHT22;6495;51.808;7.478;2023-03-23T03:14:19;11.70;99.90
12853;DHT22;6495;51.808;7.478;2023-03-23T03:17:18;11.70;99.90
12853;DHT22;6495;51.808;7.478;2023-03-23T03:20:10;11.70;99.90
12853;DHT22;6495;51.808;7.478;2023-03-23T03:23:11;11.70;99.90
12853;DHT22;6495;51.808;7.478;2023-03-23T03:26:04;11.70;99.90
12853;DHT22;6495;51.808;7.478;2023-03-23T03:29:06;11.80;99.90
12853;DHT22;6495;51.808;7.478;2023-03-23T03:32:01;11.70;99.90
12853;DHT22;6495;51.808;7.478;2023-03-23T03:34:52;11.80;99.90
12853;DHT22;6495;51.808;7.478;2023-03-23T03:37:43;11.80;99.90
12853;DHT22;6495;51.808;7.478;2023-03-23T03:40:33;11.80;99.90
12853;DHT22;6495;51.808;7.478;2023-03-23T03:43:23;11.80;99.90
12853;DHT22;6495;51.808;7.478;2023-03-23T03:46:13;11.80;99.90
12853;DHT22;6495;51.808;7.478;2023-03-23T03:49:02;11.80;99.90
12853;DHT22;6495;51.808;7.478;2023-03-23T03:51:54;11.80;99.90
12853;DHT22;6495;51.808;7.478;2023-03-23T03:54:47;11.80;99.90
12853;DHT22;6495;51.808;7.478;2023-03-23T03:57:36;11.80;99.90
12853;DHT22;6495;51.808;7.478;2023-03-23T04:00:27;11.80;99.90
12853;DHT22;6495;51.808;7.478;2023-03-23T04:03:17;11.90;99.90
12853;DHT22;6495;51.808;7.478;2023-03-23T04:06:27;11.90;99.90
12853;DHT22;6495;51.808;7.478;2023-03-23T04:09:22;11.90;99.90
12853;DHT22;6495;51.808;7.478;2023-03-23T04:12:16;11.90;99.90
12853;DHT22;6495;51.808;7.478;2023-03-23T04:15:16;11.90;99.90
12853;DHT22;6495;51.808;7.478;2023-03-23T04:18:05;11.90;99.90
12853;DHT22;6495;51.808;7.478;2023-03-23T04:20:55;11.90;99.90
12853;DHT22;6495;51.808;7.478;2023-03-23T04:23:45;11.90;99.90
12853;DHT22;6495;51.808;7.478;2023-03-23T04:26:34;11.90;99.90
12853;DHT22;6495;51.808;7.478;2023-03-23T04:29:33;11.90;99.90
12853;DHT22;6495;51.808;7.478;2023-03-23T04:32:45;12.00;99.90
12853;DHT22;6495;51.808;7.478;2023-03-23T04:35:39;12.00;99.90
12853;DHT22;6495;51.808;7.478;2023-03-23T04:38:52;12.00;99.90
12853;DHT22;6495;51.808;7.478;2023-03-23T04:41:47;12.00;99.90
12853;DHT22;6495;51.808;7.478;2023-03-23T04:45:04;12.00;99.90
12853;DHT22;6495;51.808;7.478;2023-03-23T04:48:01;12.00;99.90
12853;DHT22;6495;51.808;7.478;2023-03-23T04:51:05;12.00;99.90
12853;DHT22;6495;51.808;7.478;2023-03-23T04:53:53;12.00;99.90
12853;DHT22;6495;51.808;7.478;2023-03-23T04:56:43;12.00;99.90
12853;DHT22;6495;51.808;7.478;2023-03-23T04:59:34;12.00;99.90
12853;DHT22;6495;51.808;7.478;2023-03-23T05:02:29;12.00;99.90
12853;DHT22;6495;51.808;7.478;2023-03-23T05:05:20;12.00;99.90
12853;DHT22;6495;51.808;7.478;2023-03-23T05:08:12;12.00;99.90
12853;DHT22;6495;51.808;7.478;2023-03-23T05:11:02;12.00;99.90
12853;DHT22;6495;51.808;7.478;2023-03-23T05:13:57;12.00;99.90
12853;DHT22;6495;51.808;7.478;2023-03-23T05:16:51;12.00;99.90
12853;DHT22;6495;51.808;7.478;2023-03-23T05:19:49;12.00;99.90
12853;DHT22;6495;51.808;7.478;2023-03-23T05:23:05;12.00;99.90
12853;DHT22;6495;51.808;7.478;2023-03-23T05:25:56;12.00;99.90
12853;DHT22;6495;51.808;7.478;2023-03-23T05:28:48;12.00;99.90
12853;DHT22;6495;51.808;7.478;2023-03-23T05:31:51;12.00;99.90
12853;DHT22;6495;51.808;7.478;2023-03-23T05:34:42;12.10;99.90
12853;DHT22;6495;51.808;7.478;2023-03-23T05:37:30;12.10;99.90
12853;DHT22;6495;51.808;7.478;2023-03-23T05:40:28;12.10;99.90
12853;DHT22;6495;51.808;7.478;2023-03-23T05:43:21;12.10;99.90
12853;DHT22;6495;51.808;7.478;2023-03-23T05:46:28;12.10;99.90
12853;DHT22;6495;51.808;7.478;2023-03-23T05:49:19;12.20;99.90
12853;DHT22;6495;51.808;7.478;2023-03-23T05:52:25;12.20;99.90
12853;DHT22;6495;51.808;7.478;2023-03-23T05:55:13;12.20;99.90
12853;DHT22;6495;51.808;7.478;2023-03-23T05:58:07;12.20;99.90
12853;DHT22;6495;51.808;7.478;2023-03-23T06:00:58;12.20;99.90
12853;DHT22;6495;51.808;7.478;2023-03-23T06:03:49;12.20;99.90
12853;DHT22;6495;51.808;7.478;2023-03-23T06:06:43;12.30;99.90
12853;DHT22;6495;51.808;7.478;2023-03-23T06:09:31;12.30;99.90
12853;DHT22;6495;51.808;7.478;2023-03-23T06:12:41;12.30;99.90
12853;DHT22;6495;51.808;7.478;2023-03-23T06:15:49;12.30;99.90
12853;DHT22;6495;51.808;7.478;2023-03-23T06:18:46;12.30;99.90
12853;DHT22;6495;51.808;7.478;2023-03-23T06:21:42;12.30;99.90
12853;DHT22;6495;51.808;7.478;2023-03-23T06:24:46;12.30;99.90
12853;DHT22;6495;51.808;7.478;2023-03-23T06:27:39;12.30;99.90
12853;DHT22;6495;51.808;7.478;2023-03-23T06:30:27;12.40;99.90
12853;DHT22;6495;51.808;7.478;2023-03-23T06:33:19;12.40;99.90
12853;DHT22;6495;51.808;7.478;2023-03-23T06:36:30;12.40;99.90
12853;DHT22;6495;51.808;7.478;2023-03-23T06:39:31;12.40;99.90
12853;DHT22;6495;51.808;7.478;2023-03-23T06:42:31;12.40;99.90
12853;DHT22;6495;51.808;7.478;2023-03-23T06:45:43;12.40;99.90
12853;DHT22;6495;51.808;7.478;2023-03-23T06:49:09;12.40;99.90
12853;DHT22;6495;51.808;7.478;2023-03-23T06:52:06;12.40;99.90
12853;DHT22;6495;51.808;7.478;2023-03-23T06:54:54;12.40;99.90
12853;DHT22;6495;51.808;7.478;2023-03-23T06:57:42;12.40;99.90
12853;DHT22;6495;51.808;7.478;2023-03-23T07:00:32;12.40;99.90
12853;DHT22;6495;51.808;7.478;2023-03-23T07:03:20;12.40;99.90
12853;DHT22;6495;51.808;7.478;2023-03-23T07:06:09;12.40;99.90
12853;DHT22;6495;51.808;7.478;2023-03-23T07:09:05;12.50;99.90
12853;DHT22;6495;51.808;7.478;2023-03-23T07:11:53;12.50;99.90
12853;DHT22;6495;51.808;7.478;2023-03-23T07:14:51;12.50;99.90
12853;DHT22;6495;51.808;7.478;2023-03-23T07:17:39;12.50;99.90
12853;DHT22;6495;51.808;7.478;2023-03-23T07:20:35;12.50;99.90
12853;DHT22;6495;51.808;7.478;2023-03-23T07:23:25;12.40;99.90
12853;DHT22;6495;51.808;7.478;2023-03-23T07:26:20;12.40;99.90
12853;DHT22;6495;51.808;7.478;2023-03-23T07:29:13;12.40;99.90
12853;DHT22;6495;51.808;7.478;2023-03-23T07:32:02;12.50;99.90
12853;DHT22;6495;51.808;7.478;2023-03-23T07:34:51;12.50;99.90
12853;DHT22;6495;51.808;7.478;2023-03-23T07:37:45;12.50;99.90
12853;DHT22;6495;51.808;7.478;2023-03-23T07:40:36;12.50;99.90
12853;DHT22;6495;51.808;7.478;2023-03-23T07:43:30;12.50;99.90
12853;DHT22;6495;51.808;7.478;2023-03-23T07:46:30;12.50;99.90
12853;DHT22;6495;51.808;7.478;2023-03-23T07:49:29;12.50;99.90
12853;DHT22;6495;51.808;7.478;2023-03-23T07:52:28;12.60;99.90
12853;DHT22;6495;51.808;7.478;2023-03-23T07:55:16;12.60;99.90
12853;DHT22;6495;51.808;7.478;2023-03-23T07:58:20;12.60;99.90
12853;DHT22;6495;51.808;7.478;2023-03-23T08:01:13;12.60;99.90
12853;DHT22;6495;51.808;7.478;2023-03-23T08:04:06;12.60;99.90
12853;DHT22;6495;51.808;7.478;2023-03-23T08:07:08;12.60;99.90
12853;DHT22;6495;51.808;7.478;2023-03-23T08:10:08;12.60;99.90
12853;DHT22;6495;51.808;7.478;2023-03-23T08:13:18;12.70;99.90
12853;DHT22;6495;51.808;7.478;2023-03-23T08:16:27;12.70;99.90
12853;DHT22;6495;51.808;7.478;2023-03-23T08:19:32;12.70;99.90
12853;DHT22;6495;51.808;7.478;2023-03-23T08:22:42;12.70;99.90
12853;DHT22;6495;51.808;7.478;2023-03-23T08:25:57;12.70;99.90
12853;DHT22;6495;51.808;7.478;2023-03-23T08:29:10;12.70;99.90
12853;DHT22;6495;51.808;7.478;2023-03-23T08:32:30;12.80;99.90
12853;DHT22;6495;51.808;7.478;2023-03-23T08:35:35;12.80;99.90
12853;DHT22;6495;51.808;7.478;2023-03-23T08:38:51;12.80;99.90
12853;DHT22;6495;51.808;7.478;2023-03-23T08:42:01;12.80;99.90
12853;DHT22;6495;51.808;7.478;2023-03-23T08:45:07;12.90;99.90
12853;DHT22;6495;51.808;7.478;2023-03-23T08:48:19;12.90;99.90
12853;DHT22;6495;51.808;7.478;2023-03-23T08:51:16;13.00;99.90
12853;DHT22;6495;51.808;7.478;2023-03-23T08:54:27;13.00;99.90
12853;DHT22;6495;51.808;7.478;2023-03-23T08:57:35;13.10;99.90
12853;DHT22;6495;51.808;7.478;2023-03-23T09:00:43;13.10;99.90
12853;DHT22;6495;51.808;7.478;2023-03-23T09:04:04;13.10;99.90
12853;DHT22;6495;51.808;7.478;2023-03-23T09:07:16;13.20;99.90
12853;DHT22;6495;51.808;7.478;2023-03-23T09:10:05;13.20;99.90
12853;DHT22;6495;51.808;7.478;2023-03-23T09:12:54;13.20;99.90
12853;DHT22;6495;51.808;7.478;2023-03-23T09:15:43;13.10;99.90
12853;DHT22;6495;51.808;7.478;2023-03-23T09:18:31;13.20;99.90
12853;DHT22;6495;51.808;7.478;2023-03-23T09:21:19;13.10;99.90
12853;DHT22;6495;51.808;7.478;2023-03-23T09:24:07;13.10;99.90
12853;DHT22;6495;51.808;7.478;2023-03-23T09:26:55;13.10;99.90
12853;DHT22;6495;51.808;7.478;2023-03-23T09:29:44;13.10;99.90
12853;DHT22;6495;51.808;7.478;2023-03-23T09:32:36;13.10;99.90
12853;DHT22;6495;51.808;7.478;2023-03-23T09:35:24;13.10;99.90
12853;DHT22;6495;51.808;7.478;2023-03-23T09:38:13;13.10;99.90
12853;DHT22;6495;51.808;7.478;2023-03-23T09:41:04;13.10;99.90
12853;DHT22;6495;51.808;7.478;2023-03-23T09:44:06;13.10;99.90
12853;DHT22;6495;51.808;7.478;2023-03-23T09:47:05;13.20;99.90
12853;DHT22;6495;51.808;7.478;2023-03-23T09:50:02;13.20;99.90
12853;DHT22;6495;51.808;7.478;2023-03-23T09:52:58;13.20;99.90
12853;DHT22;6495;51.808;7.478;2023-03-23T09:55:53;13.20;99.90
12853;DHT22;6495;51.808;7.478;2023-03-23T09:58:45;13.20;99.90
12853;DHT22;6495;51.808;7.478;2023-03-23T10:01:41;13.20;99.90
12853;DHT22;6495;51.808;7.478;2023-03-23T10:04:36;13.00;99.90
12853;DHT22;6495;51.808;7.478;2023-03-23T10:07:29;12.90;99.90
12853;DHT22;6495;51.808;7.478;2023-03-23T10:10:18;12.70;99.90
12853;DHT22;6495;51.808;7.478;2023-03-23T10:13:12;12.60;99.90
12853;DHT22;6495;51.808;7.478;2023-03-23T10:16:07;12.50;99.90
12853;DHT22;6495;51.808;7.478;2023-03-23T10:19:01;12.50;99.90
12853;DHT22;6495;51.808;7.478;2023-03-23T10:22:01;12.40;99.90
12853;DHT22;6495;51.808;7.478;2023-03-23T10:24:59;12.40;99.90
12853;DHT22;6495;51.808;7.478;2023-03-23T10:28:01;12.30;99.90
12853;DHT22;6495;51.808;7.478;2023-03-23T10:30:56;12.30;99.90
12853;DHT22;6495;51.808;7.478;2023-03-23T10:33:46;12.30;99.90
12853;DHT22;6495;51.808;7.478;2023-03-23T10:36:38;12.20;99.90
12853;DHT22;6495;51.808;7.478;2023-03-23T10:39:43;12.20;99.90
12853;DHT22;6495;51.808;7.478;2023-03-23T10:42:37;12.20;99.90
12853;DHT22;6495;51.808;7.478;2023-03-23T10:45:28;12.20;99.90
12853;DHT22;6495;51.808;7.478;2023-03-23T10:48:21;12.20;99.90
12853;DHT22;6495;51.808;7.478;2023-03-23T10:51:13;12.20;99.90
12853;DHT22;6495;51.808;7.478;2023-03-23T10:54:06;12.20;99.90
12853;DHT22;6495;51.808;7.478;2023-03-23T10:56:54;12.10;99.90
12853;DHT22;6495;51.808;7.478;2023-03-23T10:59:43;12.10;99.90
12853;DHT22;6495;51.808;7.478;2023-03-23T11:02:31;12.10;99.90
12853;DHT22;6495;51.808;7.478;2023-03-23T11:05:25;12.10;99.90
12853;DHT22;6495;51.808;7.478;2023-03-23T11:08:16;12.10;99.90
12853;DHT22;6495;51.808;7.478;2023-03-23T11:11:11;12.10;99.90
12853;DHT22;6495;51.808;7.478;2023-03-23T11:14:15;12.10;99.90
12853;DHT22;6495;51.808;7.478;2023-03-23T11:17:21;12.20;99.90
12853;DHT22;6495;51.808;7.478;2023-03-23T11:20:11;12.20;99.90
12853;DHT22;6495;51.808;7.478;2023-03-23T11:23:01;12.20;99.90
12853;DHT22;6495;51.808;7.478;2023-03-23T11:25:57;12.20;99.90
12853;DHT22;6495;51.808;7.478;2023-03-23T11:28:52;12.20;99.90
12853;DHT22;6495;51.808;7.478;2023-03-23T11:31:44;12.30;99.90
12853;DHT22;6495;51.808;7.478;2023-03-23T11:34:42;12.30;99.90
12853;DHT22;6495;51.808;7.478;2023-03-23T11:37:34;12.30;99.90
12853;DHT22;6495;51.808;7.478;2023-03-23T11:40:24;12.20;99.90
12853;DHT22;6495;51.808;7.478;2023-03-23T11:43:17;12.20;99.90
12853;DHT22;6495;51.808;7.478;2023-03-23T11:46:15;12.30;99.90
12853;DHT22;6495;51.808;7.478;2023-03-23T11:49:22;12.30;99.90
12853;DHT22;6495;51.808;7.478;2023-03-23T11:52:24;12.30;99.90
12853;DHT22;6495;51.808;7.478;2023-03-23T11:55:24;12.30;99.90
12853;DHT22;6495;51.808;7.478;2023-03-23T11:58:17;12.30;99.90
12853;DHT22;6495;51.808;7.478;2023-03-23T12:01:11;12.30;99.90
12853;DHT22;6495;51.808;7.478;2023-03-23T12:04:25;12.30;99.90
12853;DHT22;6495;51.808;7.478;2023-03-23T12:07:40;12.30;99.90
12853;DHT22;6495;51.808;7.478;2023-03-23T12:10:46;12.30;99.90
12853;DHT22;6495;51.808;7.478;2023-03-23T12:13:57;12.30;99.90
12853;DHT22;6495;51.808;7.478;2023-03-23T12:17:00;12.40;99.90
12853;DHT22;6495;51.808;7.478;2023-03-23T12:20:04;12.40;99.90
12853;DHT22;6495;51.808;7.478;2023-03-23T12:23:11;12.50;99.90
12853;DHT22;6495;51.808;7.478;2023-03-23T12:26:33;12.50;99.90
12853;DHT22;6495;51.808;7.478;2023-03-23T12:33:25;12.60;99.90
12853;DHT22;6495;51.808;7.478;2023-03-23T12:36:35;12.60;99.90
12853;DHT22;6495;51.808;7.478;2023-03-23T12:39:47;12.60;99.90
12853;DHT22;6495;51.808;7.478;2023-03-23T12:42:58;12.70;99.90
12853;DHT22;6495;51.808;7.478;2023-03-23T12:46:07;12.70;99.90
12853;DHT22;6495;51.808;7.478;2023-03-23T12:49:10;12.80;99.90
12853;DHT22;6495;51.808;7.478;2023-03-23T12:52:08;12.80;99.90
12853;DHT22;6495;51.808;7.478;2023-03-23T12:55:05;12.80;99.90
12853;DHT22;6495;51.808;7.478;2023-03-23T12:58:05;12.80;99.90
12853;DHT22;6495;51.808;7.478;2023-03-23T13:00:57;12.80;99.90
12853;DHT22;6495;51.808;7.478;2023-03-23T13:03:52;12.80;99.90
12853;DHT22;6495;51.808;7.478;2023-03-23T13:06:45;12.80;99.90
12853;DHT22;6495;51.808;7.478;2023-03-23T13:09:43;12.90;99.90
12853;DHT22;6495;51.808;7.478;2023-03-23T13:12:38;12.90;99.90
12853;DHT22;6495;51.808;7.478;2023-03-23T13:15:33;12.90;99.90
12853;DHT22;6495;51.808;7.478;2023-03-23T13:18:33;12.90;99.90
12853;DHT22;6495;51.808;7.478;2023-03-23T13:21:30;12.90;99.90
12853;DHT22;6495;51.808;7.478;2023-03-23T13:24:21;12.90;99.90
12853;DHT22;6495;51.808;7.478;2023-03-23T13:27:13;12.90;99.90
12853;DHT22;6495;51.808;7.478;2023-03-23T13:30:03;12.90;99.90
12853;DHT22;6495;51.808;7.478;2023-03-23T13:33:11;12.90;99.90
12853;DHT22;6495;51.808;7.478;2023-03-23T13:36:10;12.90;99.90
12853;DHT22;6495;51.808;7.478;2023-03-23T13:39:02;13.00;99.90
12853;DHT22;6495;51.808;7.478;2023-03-23T13:42:05;13.00;99.90
12853;DHT22;6495;51.808;7.478;2023-03-23T13:48:48;13.10;99.90
12853;DHT22;6495;51.808;7.478;2023-03-23T13:54:41;13.10;99.90
12853;DHT22;6495;51.808;7.478;2023-03-23T13:56:20;13.10;99.90
12853;DHT22;6495;51.808;7.478;2023-03-23T13:59:31;13.20;99.90
12853;DHT22;6495;51.808;7.478;2023-03-23T14:02:47;13.20;99.90
12853;DHT22;6495;51.808;7.478;2023-03-23T14:15:43;13.50;99.90
12853;DHT22;6495;51.808;7.478;2023-03-23T14:21:17;13.60;99.90
12853;DHT22;6495;51.808;7.478;2023-03-23T14:24:10;13.70;99.90
12853;DHT22;6495;51.808;7.478;2023-03-23T14:27:12;13.80;99.90
12853;DHT22;6495;51.808;7.478;2023-03-23T14:30:04;13.90;99.90
12853;DHT22;6495;51.808;7.478;2023-03-23T14:33:03;14.00;99.90
12853;DHT22;6495;51.808;7.478;2023-03-23T14:35:53;14.10;99.90
12853;DHT22;6495;51.808;7.478;2023-03-23T14:38:47;14.20;99.90
12853;DHT22;6495;51.808;7.478;2023-03-23T14:41:36;14.30;99.90
12853;DHT22;6495;51.808;7.478;2023-03-23T14:44:26;14.30;99.90
12853;DHT22;6495;51.808;7.478;2023-03-23T14:47:19;14.30;99.90
12853;DHT22;6495;51.808;7.478;2023-03-23T14:50:23;14.40;99.90
12853;DHT22;6495;51.808;7.478;2023-03-23T14:53:21;14.50;99.90
12853;DHT22;6495;51.808;7.478;2023-03-23T14:56:13;14.50;99.90
12853;DHT22;6495;51.808;7.478;2023-03-23T14:59:06;14.50;99.90
12853;DHT22;6495;51.808;7.478;2023-03-23T15:01:59;14.60;99.90
12853;DHT22;6495;51.808;7.478;2023-03-23T15:04:50;14.60;99.90
12853;DHT22;6495;51.808;7.478;2023-03-23T15:07:43;14.70;99.90
12853;DHT22;6495;51.808;7.478;2023-03-23T15:10:34;14.80;99.90
12853;DHT22;6495;51.808;7.478;2023-03-23T15:13:23;14.90;99.90
12853;DHT22;6495;51.808;7.478;2023-03-23T15:16:14;14.90;99.90
12853;DHT22;6495;51.808;7.478;2023-03-23T15:19:11;15.00;99.90
12853;DHT22;6495;51.808;7.478;2023-03-23T15:22:12;15.00;99.90
12853;DHT22;6495;51.808;7.478;2023-03-23T15:25:12;15.00;99.90
12853;DHT22;6495;51.808;7.478;2023-03-23T15:28:14;14.90;99.90
12853;DHT22;6495;51.808;7.478;2023-03-23T15:31:11;14.90;99.90
12853;DHT22;6495;51.808;7.478;2023-03-23T15:34:02;14.90;99.90
12853;DHT22;6495;51.808;7.478;2023-03-23T15:36:56;14.80;99.90
12853;DHT22;6495;51.808;7.478;2023-03-23T15:39:47;14.80;99.90
12853;DHT22;6495;51.808;7.478;2023-03-23T15:42:36;14.70;99.90
12853;DHT22;6495;51.808;7.478;2023-03-23T15:45:27;14.70;99.90
12853;DHT22;6495;51.808;7.478;2023-03-23T15:48:16;14.60;99.90
12853;DHT22;6495;51.808;7.478;2023-03-23T15:51:04;14.60;99.90
12853;DHT22;6495;51.808;7.478;2023-03-23T15:53:53;14.60;99.90
12853;DHT22;6495;51.808;7.478;2023-03-23T15:56:43;14.60;99.90
12853;DHT22;6495;51.808;7.478;2023-03-23T15:59:31;14.50;99.90
12853;DHT22;6495;51.808;7.478;2023-03-23T16:02:21;14.50;99.90
12853;DHT22;6495;51.808;7.478;2023-03-23T16:05:15;14.50;99.90
12853;DHT22;6495;51.808;7.478;2023-03-23T16:08:04;14.60;99.90
12853;DHT22;6495;51.808;7.478;2023-03-23T16:10:55;14.60;99.90
12853;DHT22;6495;51.808;7.478;2023-03-23T16:13:44;14.60;99.90
12853;DHT22;6495;51.808;7.478;2023-03-23T16:16:35;14.60;99.90
12853;DHT22;6495;51.808;7.478;2023-03-23T16:19:25;14.60;99.90
12853;DHT22;6495;51.808;7.478;2023-03-23T16:22:15;14.60;99.90
12853;DHT22;6495;51.808;7.478;2023-03-23T16:25:05;14.60;99.90
12853;DHT22;6495;51.808;7.478;2023-03-23T16:27:57;14.50;99.90
12853;DHT22;6495;51.808;7.478;2023-03-23T16:30:47;14.50;99.90
12853;DHT22;6495;51.808;7.478;2023-03-23T16:33:38;14.50;99.90
12853;DHT22;6495;51.808;7.478;2023-03-23T16:36:27;14.40;99.90
12853;DHT22;6495;51.808;7.478;2023-03-23T16:39:20;14.40;99.90
12853;DHT22;6495;51.808;7.478;2023-03-23T16:42:09;14.40;99.90
12853;DHT22;6495;51.808;7.478;2023-03-23T16:44:57;14.40;99.90
12853;DHT22;6495;51.808;7.478;2023-03-23T16:47:46;14.40;99.90
12853;DHT22;6495;51.808;7.478;2023-03-23T16:50:36;14.30;99.90
12853;DHT22;6495;51.808;7.478;2023-03-23T16:53:25;14.30;99.90
12853;DHT22;6495;51.808;7.478;2023-03-23T16:56:15;14.30;99.90
12853;DHT22;6495;51.808;7.478;2023-03-23T16:59:04;14.20;99.90
12853;DHT22;6495;51.808;7.478;2023-03-23T17:01:52;14.20;99.90
12853;DHT22;6495;51.808;7.478;2023-03-23T17:04:42;14.20;99.90
12853;DHT22;6495;51.808;7.478;2023-03-23T17:07:31;14.20;99.90
12853;DHT22;6495;51.808;7.478;2023-03-23T17:10:20;14.20;99.90
12853;DHT22;6495;51.808;7.478;2023-03-23T17:13:11;14.20;99.90
12853;DHT22;6495;51.808;7.478;2023-03-23T17:16:00;14.20;99.90
12853;DHT22;6495;51.808;7.478;2023-03-23T17:18:48;14.20;99.90
12853;DHT22;6495;51.808;7.478;2023-03-23T17:21:37;14.20;99.90
12853;DHT22;6495;51.808;7.478;2023-03-23T17:24:26;14.20;99.90
12853;DHT22;6495;51.808;7.478;2023-03-23T17:27:16;14.20;99.90
12853;DHT22;6495;51.808;7.478;2023-03-23T17:30:08;14.20;99.90
12853;DHT22;6495;51.808;7.478;2023-03-23T17:32:58;14.20;99.90
12853;DHT22;6495;51.808;7.478;2023-03-23T17:35:46;14.20;99.90
12853;DHT22;6495;51.808;7.478;2023-03-23T17:38:38;14.20;99.90
12853;DHT22;6495;51.808;7.478;2023-03-23T17:41:26;14.20;99.90
12853;DHT22;6495;51.808;7.478;2023-03-23T17:44:15;14.20;99.90
12853;DHT22;6495;51.808;7.478;2023-03-23T17:47:05;14.20;99.90
12853;DHT22;6495;51.808;7.478;2023-03-23T17:49:53;14.20;99.90
12853;DHT22;6495;51.808;7.478;2023-03-23T17:52:42;14.20;99.90
12853;DHT22;6495;51.808;7.478;2023-03-23T17:55:31;14.20;99.90
12853;DHT22;6495;51.808;7.478;2023-03-23T17:58:20;14.20;99.90
12853;DHT22;6495;51.808;7.478;2023-03-23T18:01:11;14.20;99.90
12853;DHT22;6495;51.808;7.478;2023-03-23T18:04:01;14.10;99.90
12853;DHT22;6495;51.808;7.478;2023-03-23T18:06:51;14.10;99.90
12853;DHT22;6495;51.808;7.478;2023-03-23T18:09:41;14.00;99.90
12853;DHT22;6495;51.808;7.478;2023-03-23T18:12:31;14.00;99.90
12853;DHT22;6495;51.808;7.478;2023-03-23T18:15:20;14.00;99.90
12853;DHT22;6495;51.808;7.478;2023-03-23T18:18:16;13.90;99.90
12853;DHT22;6495;51.808;7.478;2023-03-23T18:21:08;13.80;99.90
12853;DHT22;6495;51.808;7.478;2023-03-23T18:23:57;13.70;99.90
12853;DHT22;6495;51.808;7.478;2023-03-23T18:26:49;13.70;99.90
12853;DHT22;6495;51.808;7.478;2023-03-23T18:29:41;13.60;99.90
12853;DHT22;6495;51.808;7.478;2023-03-23T18:32:30;13.50;99.90
12853;DHT22;6495;51.808;7.478;2023-03-23T18:35:19;13.40;99.90
12853;DHT22;6495;51.808;7.478;2023-03-23T18:38:10;13.40;99.90
12853;DHT22;6495;51.808;7.478;2023-03-23T18:41:00;13.40;99.90
12853;DHT22;6495;51.808;7.478;2023-03-23T18:43:49;13.30;99.90
12853;DHT22;6495;51.808;7.478;2023-03-23T18:46:37;13.30;99.90
12853;DHT22;6495;51.808;7.478;2023-03-23T18:49:26;13.30;99.90
12853;DHT22;6495;51.808;7.478;2023-03-23T18:52:16;13.40;99.90
12853;DHT22;6495;51.808;7.478;2023-03-23T18:55:06;13.40;99.90
12853;DHT22;6495;51.808;7.478;2023-03-23T18:57:55;13.40;99.90
12853;DHT22;6495;51.808;7.478;2023-03-23T19:00:46;13.40;99.90
12853;DHT22;6495;51.808;7.478;2023-03-23T19:03:37;13.40;99.90
12853;DHT22;6495;51.808;7.478;2023-03-23T19:06:26;13.40;99.90
12853;DHT22;6495;51.808;7.478;2023-03-23T19:09:16;13.30;99.90
12853;DHT22;6495;51.808;7.478;2023-03-23T19:12:07;13.30;99.90
12853;DHT22;6495;51.808;7.478;2023-03-23T19:14:56;13.30;99.90